Kolmaarden Stroemsfors, Sweden

7:09 PM CET on December 19, 2014 (GMT +0100)
Krokek | Change Station
CLOSE
Current Station
Personal Weather Station
Location: Kolmården, Östergötlands län
Elevation: 161 ft
Nearby Weather Stations

Elev 161 ft 58.67 °N, 16.36 °E | Updated 6 seconds ago

Clear
Clear
37.9 °F
Feels Like 35 °F
N
3.9
Wind Variable Wind from WSW
Gusts 12.1 mph

Today
High -- | Low -- °F
--% Chance of Precip.
Yesterday
High -- | Low -- °F
Precip. -- in
8:43 AM 3:00 PM
Waning Crescent, 7% visible
Pressure 29.15 in
Visibility -9999.0 miles
Clouds
Windchill 35 °F
Dew Point 32 °F
Humidity 78%
Rainfall 0.05 in
Snow Depth Not available.
UV Not available.
Pollen Not available.
Air Quality Not available.
Flu Activity Not available.
METAR ESSP 191750Z 24016KT CAVOK 03/01 Q0987 R27/19//95

More Conditions Fewer Conditions

Pressure 29.15 in
Visibility -9999.0 miles
Clouds
Windchill 35 °F
Dew Point 32 °F
Humidity 78%
Rainfall 0.05 in
Snow Depth Not available.
UV Not available.
Pollen Not available.
Air Quality Not available.
Flu Activity Not available.
METAR ESSP 191750Z 24016KT CAVOK 03/01 Q0987 R27/19//95

More Conditions Fewer Conditions

10-Day Weather Forecast

Almanac

Astronomy

Dec. 19, 2014 Rise Set
Actual Time
Civil Twilight
Nautical Twilight
Astronomical Twilight
Moon
Length of Visible Light
Length of Day
Tomorrow will be .
, % of the Moon is Illuminated

Today's Extremes

Country Highs Country Lows

Community

WunderPhotos

Upload Photos

1,779,012 photos uploaded!

WunderBlogs® & News

Nearby

Air Quality

  Air Quality AQ Index Pollutant
Not available.

Snow Depth

Station Depth Elevation

Earthquake Activity

City Distance Mag. Time & Date
Minimum magnitude displayed is 2.5.

Coastal Water Temperatures

Place Temperature

Nearby Weather Stations